sensor_id;sensor_type;location;lat;lon;timestamp;P1;durP1;ratioP1;P2;durP2;ratioP2
55497;SDS011;41357;52.806;18.268;2022-12-24T00:00:07;186.95;;;28.67;;
55497;SDS011;41357;52.806;18.268;2022-12-24T00:02:33;214.35;;;26.27;;
55497;SDS011;41357;52.806;18.268;2022-12-24T00:04:59;174.90;;;27.23;;
55497;SDS011;41357;52.806;18.268;2022-12-24T00:07:25;195.40;;;30.67;;
55497;SDS011;41357;52.806;18.268;2022-12-24T00:09:51;160.52;;;26.55;;
55497;SDS011;41357;52.806;18.268;2022-12-24T00:12:17;166.10;;;24.52;;
55497;SDS011;41357;52.806;18.268;2022-12-24T00:14:43;154.63;;;24.75;;
55497;SDS011;41357;52.806;18.268;2022-12-24T00:17:09;194.25;;;29.48;;
55497;SDS011;41357;52.806;18.268;2022-12-24T00:19:35;168.63;;;25.73;;
55497;SDS011;41357;52.806;18.268;2022-12-24T00:22:01;175.85;;;26.52;;
55497;SDS011;41357;52.806;18.268;2022-12-24T00:24:27;217.75;;;27.10;;
55497;SDS011;41357;52.806;18.268;2022-12-24T00:26:54;167.90;;;27.48;;
55497;SDS011;41357;52.806;18.268;2022-12-24T00:29:20;177.30;;;26.85;;
55497;SDS011;41357;52.806;18.268;2022-12-24T00:31:46;163.63;;;25.27;;
55497;SDS011;41357;52.806;18.268;2022-12-24T00:34:12;238.80;;;27.13;;
55497;SDS011;41357;52.806;18.268;2022-12-24T00:36:38;128.13;;;26.58;;
55497;SDS011;41357;52.806;18.268;2022-12-24T00:39:04;213.60;;;28.85;;
55497;SDS011;41357;52.806;18.268;2022-12-24T00:41:30;229.60;;;30.63;;
55497;SDS011;41357;52.806;18.268;2022-12-24T00:43:57;171.38;;;28.35;;
55497;SDS011;41357;52.806;18.268;2022-12-24T00:46:24;164.10;;;25.27;;
55497;SDS011;41357;52.806;18.268;2022-12-24T00:48:51;161.77;;;25.63;;
55497;SDS011;41357;52.806;18.268;2022-12-24T00:51:17;138.93;;;24.73;;
55497;SDS011;41357;52.806;18.268;2022-12-24T00:53:43;114.72;;;23.55;;
55497;SDS011;41357;52.806;18.268;2022-12-24T00:56:09;134.70;;;21.42;;
55497;SDS011;41357;52.806;18.268;2022-12-24T00:58:36;142.02;;;24.25;;
55497;SDS011;41357;52.806;18.268;2022-12-24T01:01:02;136.50;;;25.25;;
55497;SDS011;41357;52.806;18.268;2022-12-24T01:03:29;186.63;;;26.98;;
55497;SDS011;41357;52.806;18.268;2022-12-24T01:06:05;155.00;;;25.52;;
55497;SDS011;41357;52.806;18.268;2022-12-24T01:08:31;164.80;;;22.65;;
55497;SDS011;41357;52.806;18.268;2022-12-24T01:11:00;162.68;;;23.65;;
55497;SDS011;41357;52.806;18.268;2022-12-24T01:13:26;149.23;;;25.08;;
55497;SDS011;41357;52.806;18.268;2022-12-24T01:15:52;145.38;;;25.20;;
55497;SDS011;41357;52.806;18.268;2022-12-24T01:18:18;123.40;;;26.08;;
55497;SDS011;41357;52.806;18.268;2022-12-24T01:20:44;117.25;;;23.77;;
55497;SDS011;41357;52.806;18.268;2022-12-24T01:23:11;157.05;;;26.63;;
55497;SDS011;41357;52.806;18.268;2022-12-24T01:25:37;119.32;;;21.67;;
55497;SDS011;41357;52.806;18.268;2022-12-24T01:28:04;93.07;;;23.42;;
55497;SDS011;41357;52.806;18.268;2022-12-24T01:30:30;101.45;;;21.17;;
55497;SDS011;41357;52.806;18.268;2022-12-24T01:32:56;114.30;;;20.88;;
55497;SDS011;41357;52.806;18.268;2022-12-24T01:35:23;100.30;;;21.48;;
55497;SDS011;41357;52.806;18.268;2022-12-24T01:37:49;69.85;;;19.95;;
55497;SDS011;41357;52.806;18.268;2022-12-24T01:40:15;86.57;;;20.73;;
55497;SDS011;41357;52.806;18.268;2022-12-24T01:43:01;91.30;;;23.45;;
55497;SDS011;41357;52.806;18.268;2022-12-24T01:50:48;77.70;;;19.85;;
55497;SDS011;41357;52.806;18.268;2022-12-24T01:53:15;61.67;;;19.45;;
55497;SDS011;41357;52.806;18.268;2022-12-24T01:55:42;62.00;;;18.23;;
55497;SDS011;41357;52.806;18.268;2022-12-24T01:58:09;64.78;;;16.55;;
55497;SDS011;41357;52.806;18.268;2022-12-24T02:00:36;62.42;;;18.17;;
55497;SDS011;41357;52.806;18.268;2022-12-24T02:03:02;54.42;;;17.63;;
55497;SDS011;41357;52.806;18.268;2022-12-24T02:05:30;68.95;;;16.52;;
55497;SDS011;41357;52.806;18.268;2022-12-24T02:07:57;71.28;;;16.75;;
55497;SDS011;41357;52.806;18.268;2022-12-24T02:10:24;84.55;;;18.40;;
55497;SDS011;41357;52.806;18.268;2022-12-24T02:12:50;72.60;;;18.27;;
55497;SDS011;41357;52.806;18.268;2022-12-24T02:15:17;81.07;;;19.70;;
55497;SDS011;41357;52.806;18.268;2022-12-24T02:20:29;71.95;;;19.85;;
55497;SDS011;41357;52.806;18.268;2022-12-24T02:31:15;115.75;;;18.90;;
55497;SDS011;41357;52.806;18.268;2022-12-24T02:33:49;50.53;;;16.25;;
55497;SDS011;41357;52.806;18.268;2022-12-24T02:36:39;99.43;;;23.70;;
55497;SDS011;41357;52.806;18.268;2022-12-24T02:39:04;152.85;;;23.50;;
55497;SDS011;41357;52.806;18.268;2022-12-24T02:41:32;123.65;;;21.65;;
55497;SDS011;41357;52.806;18.268;2022-12-24T02:44:18;96.35;;;20.70;;
55497;SDS011;41357;52.806;18.268;2022-12-24T02:46:45;67.93;;;17.02;;
55497;SDS011;41357;52.806;18.268;2022-12-24T02:49:12;97.97;;;20.35;;
55497;SDS011;41357;52.806;18.268;2022-12-24T02:51:39;85.80;;;21.75;;
55497;SDS011;41357;52.806;18.268;2022-12-24T02:54:05;78.97;;;20.00;;
55497;SDS011;41357;52.806;18.268;2022-12-24T02:57:14;73.50;;;18.63;;
55497;SDS011;41357;52.806;18.268;2022-12-24T03:07:17;82.78;;;20.55;;
55497;SDS011;41357;52.806;18.268;2022-12-24T03:12:15;67.55;;;19.33;;
55497;SDS011;41357;52.806;18.268;2022-12-24T03:14:43;81.25;;;18.48;;
55497;SDS011;41357;52.806;18.268;2022-12-24T03:17:09;78.45;;;18.88;;
55497;SDS011;41357;52.806;18.268;2022-12-24T03:19:35;65.70;;;16.35;;
55497;SDS011;41357;52.806;18.268;2022-12-24T03:22:03;60.67;;;16.58;;
55497;SDS011;41357;52.806;18.268;2022-12-24T03:24:30;68.55;;;18.15;;
55497;SDS011;41357;52.806;18.268;2022-12-24T03:26:56;60.85;;;18.02;;
55497;SDS011;41357;52.806;18.268;2022-12-24T03:29:24;54.35;;;17.08;;
55497;SDS011;41357;52.806;18.268;2022-12-24T03:31:51;47.50;;;16.35;;
55497;SDS011;41357;52.806;18.268;2022-12-24T03:34:17;41.63;;;15.32;;
55497;SDS011;41357;52.806;18.268;2022-12-24T03:36:43;32.28;;;13.27;;
55497;SDS011;41357;52.806;18.268;2022-12-24T03:39:10;39.13;;;15.25;;
55497;SDS011;41357;52.806;18.268;2022-12-24T03:41:36;32.90;;;12.65;;
55497;SDS011;41357;52.806;18.268;2022-12-24T03:44:03;33.67;;;13.50;;
55497;SDS011;41357;52.806;18.268;2022-12-24T03:46:29;34.50;;;13.82;;
55497;SDS011;41357;52.806;18.268;2022-12-24T03:48:56;35.05;;;14.40;;
55497;SDS011;41357;52.806;18.268;2022-12-24T03:51:23;41.40;;;14.55;;
55497;SDS011;41357;52.806;18.268;2022-12-24T03:53:52;38.38;;;14.20;;
55497;SDS011;41357;52.806;18.268;2022-12-24T03:56:19;38.60;;;14.88;;
55497;SDS011;41357;52.806;18.268;2022-12-24T03:58:45;43.08;;;16.35;;
55497;SDS011;41357;52.806;18.268;2022-12-24T04:01:11;37.58;;;14.10;;
55497;SDS011;41357;52.806;18.268;2022-12-24T04:03:38;33.05;;;12.98;;
55497;SDS011;41357;52.806;18.268;2022-12-24T04:08:30;32.53;;;11.15;;
55497;SDS011;41357;52.806;18.268;2022-12-24T04:10:56;41.15;;;14.65;;
55497;SDS011;41357;52.806;18.268;2022-12-24T04:13:22;32.47;;;10.45;;
55497;SDS011;41357;52.806;18.268;2022-12-24T04:15:58;35.25;;;12.48;;
55497;SDS011;41357;52.806;18.268;2022-12-24T04:18:25;28.52;;;12.32;;
55497;SDS011;41357;52.806;18.268;2022-12-24T04:20:51;44.95;;;15.68;;
55497;SDS011;41357;52.806;18.268;2022-12-24T04:23:18;38.47;;;14.82;;
55497;SDS011;41357;52.806;18.268;2022-12-24T04:25:44;41.53;;;15.60;;
55497;SDS011;41357;52.806;18.268;2022-12-24T04:28:10;36.53;;;13.20;;
55497;SDS011;41357;52.806;18.268;2022-12-24T04:30:39;42.35;;;14.88;;
55497;SDS011;41357;52.806;18.268;2022-12-24T04:33:05;37.35;;;13.73;;
55497;SDS011;41357;52.806;18.268;2022-12-24T04:35:31;44.00;;;15.52;;
55497;SDS011;41357;52.806;18.268;2022-12-24T04:37:57;37.10;;;13.90;;
55497;SDS011;41357;52.806;18.268;2022-12-24T04:40:24;38.45;;;15.30;;
55497;SDS011;41357;52.806;18.268;2022-12-24T04:42:50;51.05;;;16.67;;
55497;SDS011;41357;52.806;18.268;2022-12-24T04:45:16;37.67;;;13.73;;
55497;SDS011;41357;52.806;18.268;2022-12-24T04:47:43;42.95;;;14.70;;
55497;SDS011;41357;52.806;18.268;2022-12-24T04:50:09;37.45;;;14.65;;
55497;SDS011;41357;52.806;18.268;2022-12-24T04:52:35;41.15;;;15.38;;
55497;SDS011;41357;52.806;18.268;2022-12-24T04:55:02;37.28;;;14.30;;
55497;SDS011;41357;52.806;18.268;2022-12-24T04:57:30;32.70;;;13.23;;
55497;SDS011;41357;52.806;18.268;2022-12-24T04:59:56;41.15;;;14.48;;
55497;SDS011;41357;52.806;18.268;2022-12-24T05:02:22;41.30;;;14.65;;
55497;SDS011;41357;52.806;18.268;2022-12-24T05:04:49;34.20;;;10.90;;
55497;SDS011;41357;52.806;18.268;2022-12-24T05:07:15;37.35;;;13.65;;
55497;SDS011;41357;52.806;18.268;2022-12-24T05:09:41;47.22;;;14.65;;
55497;SDS011;41357;52.806;18.268;2022-12-24T05:12:07;46.28;;;17.25;;
55497;SDS011;41357;52.806;18.268;2022-12-24T05:14:33;46.00;;;16.70;;
55497;SDS011;41357;52.806;18.268;2022-12-24T05:16:59;45.67;;;14.40;;
55497;SDS011;41357;52.806;18.268;2022-12-24T05:19:25;42.63;;;14.18;;
55497;SDS011;41357;52.806;18.268;2022-12-24T05:21:51;30.42;;;11.85;;
55497;SDS011;41357;52.806;18.268;2022-12-24T05:24:36;31.42;;;10.55;;
55497;SDS011;41357;52.806;18.268;2022-12-24T05:27:21;29.50;;;13.02;;
55497;SDS011;41357;52.806;18.268;2022-12-24T05:29:47;49.85;;;13.63;;
55497;SDS011;41357;52.806;18.268;2022-12-24T05:32:13;42.70;;;14.50;;
55497;SDS011;41357;52.806;18.268;2022-12-24T05:34:39;39.88;;;14.73;;
55497;SDS011;41357;52.806;18.268;2022-12-24T05:37:05;26.73;;;10.20;;
55497;SDS011;41357;52.806;18.268;2022-12-24T05:39:31;41.05;;;14.32;;
55497;SDS011;41357;52.806;18.268;2022-12-24T05:41:57;39.42;;;14.10;;
55497;SDS011;41357;52.806;18.268;2022-12-24T05:44:23;38.97;;;13.55;;
55497;SDS011;41357;52.806;18.268;2022-12-24T05:46:49;33.22;;;11.50;;
55497;SDS011;41357;52.806;18.268;2022-12-24T05:49:15;24.88;;;10.07;;
55497;SDS011;41357;52.806;18.268;2022-12-24T05:51:41;33.45;;;11.30;;
55497;SDS011;41357;52.806;18.268;2022-12-24T05:54:07;35.83;;;11.95;;
55497;SDS011;41357;52.806;18.268;2022-12-24T05:56:34;16.33;;;7.72;;
55497;SDS011;41357;52.806;18.268;2022-12-24T05:59:00;30.10;;;11.40;;
55497;SDS011;41357;52.806;18.268;2022-12-24T06:01:26;24.52;;;10.57;;
55497;SDS011;41357;52.806;18.268;2022-12-24T06:03:52;27.73;;;10.95;;
55497;SDS011;41357;52.806;18.268;2022-12-24T06:06:19;30.08;;;9.70;;
55497;SDS011;41357;52.806;18.268;2022-12-24T06:08:46;36.30;;;11.13;;
55497;SDS011;41357;52.806;18.268;2022-12-24T06:11:13;36.67;;;12.32;;
55497;SDS011;41357;52.806;18.268;2022-12-24T06:13:40;26.05;;;9.02;;
55497;SDS011;41357;52.806;18.268;2022-12-24T06:16:07;24.05;;;8.70;;
55497;SDS011;41357;52.806;18.268;2022-12-24T06:18:34;28.60;;;11.35;;
55497;SDS011;41357;52.806;18.268;2022-12-24T06:21:00;31.30;;;11.88;;
55497;SDS011;41357;52.806;18.268;2022-12-24T06:23:28;23.02;;;8.43;;
55497;SDS011;41357;52.806;18.268;2022-12-24T06:25:57;21.48;;;7.90;;
55497;SDS011;41357;52.806;18.268;2022-12-24T06:28:29;16.63;;;6.43;;
55497;SDS011;41357;52.806;18.268;2022-12-24T06:30:56;20.30;;;8.20;;
55497;SDS011;41357;52.806;18.268;2022-12-24T06:33:22;22.75;;;8.35;;
55497;SDS011;41357;52.806;18.268;2022-12-24T06:35:49;24.75;;;9.60;;
55497;SDS011;41357;52.806;18.268;2022-12-24T06:38:15;16.73;;;7.18;;
55497;SDS011;41357;52.806;18.268;2022-12-24T06:40:42;19.38;;;8.20;;
55497;SDS011;41357;52.806;18.268;2022-12-24T06:43:09;25.25;;;8.82;;
55497;SDS011;41357;52.806;18.268;2022-12-24T06:45:35;36.65;;;11.35;;
55497;SDS011;41357;52.806;18.268;2022-12-24T06:48:01;25.60;;;10.70;;
55497;SDS011;41357;52.806;18.268;2022-12-24T06:50:27;23.65;;;10.35;;
55497;SDS011;41357;52.806;18.268;2022-12-24T06:52:53;27.40;;;10.98;;
55497;SDS011;41357;52.806;18.268;2022-12-24T06:55:19;23.48;;;10.45;;
55497;SDS011;41357;52.806;18.268;2022-12-24T06:57:46;25.27;;;9.35;;
55497;SDS011;41357;52.806;18.268;2022-12-24T07:00:12;32.50;;;11.40;;
55497;SDS011;41357;52.806;18.268;2022-12-24T07:02:41;22.55;;;10.52;;
55497;SDS011;41357;52.806;18.268;2022-12-24T07:05:08;18.38;;;8.30;;
55497;SDS011;41357;52.806;18.268;2022-12-24T07:07:38;21.38;;;8.95;;
55497;SDS011;41357;52.806;18.268;2022-12-24T07:10:05;17.42;;;8.35;;
55497;SDS011;41357;52.806;18.268;2022-12-24T07:12:31;21.55;;;9.20;;
55497;SDS011;41357;52.806;18.268;2022-12-24T07:14:58;26.13;;;9.57;;
55497;SDS011;41357;52.806;18.268;2022-12-24T07:17:24;29.00;;;9.93;;
55497;SDS011;41357;52.806;18.268;2022-12-24T07:19:50;26.00;;;10.82;;
55497;SDS011;41357;52.806;18.268;2022-12-24T07:22:16;31.42;;;11.27;;
55497;SDS011;41357;52.806;18.268;2022-12-24T07:24:42;23.88;;;10.73;;
55497;SDS011;41357;52.806;18.268;2022-12-24T07:27:08;33.40;;;11.63;;
55497;SDS011;41357;52.806;18.268;2022-12-24T07:29:34;29.30;;;12.00;;
55497;SDS011;41357;52.806;18.268;2022-12-24T07:32:00;30.65;;;10.35;;
55497;SDS011;41357;52.806;18.268;2022-12-24T07:34:26;30.67;;;10.90;;
55497;SDS011;41357;52.806;18.268;2022-12-24T07:36:52;34.08;;;12.27;;
55497;SDS011;41357;52.806;18.268;2022-12-24T07:39:19;32.63;;;11.82;;
55497;SDS011;41357;52.806;18.268;2022-12-24T07:41:45;43.90;;;14.15;;
55497;SDS011;41357;52.806;18.268;2022-12-24T07:44:11;30.70;;;13.07;;
55497;SDS011;41357;52.806;18.268;2022-12-24T07:46:38;25.27;;;11.25;;
55497;SDS011;41357;52.806;18.268;2022-12-24T07:49:04;33.55;;;13.95;;
55497;SDS011;41357;52.806;18.268;2022-12-24T07:51:31;32.20;;;15.52;;
55497;SDS011;41357;52.806;18.268;2022-12-24T07:53:57;36.03;;;13.60;;
55497;SDS011;41357;52.806;18.268;2022-12-24T07:56:23;34.70;;;16.23;;
55497;SDS011;41357;52.806;18.268;2022-12-24T07:58:49;33.55;;;12.68;;
55497;SDS011;41357;52.806;18.268;2022-12-24T08:01:16;31.83;;;13.93;;
55497;SDS011;41357;52.806;18.268;2022-12-24T08:03:43;33.78;;;13.35;;
55497;SDS011;41357;52.806;18.268;2022-12-24T08:06:09;30.05;;;12.48;;
55497;SDS011;41357;52.806;18.268;2022-12-24T08:08:36;47.03;;;15.75;;
55497;SDS011;41357;52.806;18.268;2022-12-24T08:11:03;43.72;;;16.23;;
55497;SDS011;41357;52.806;18.268;2022-12-24T08:13:30;40.38;;;13.35;;
55497;SDS011;41357;52.806;18.268;2022-12-24T08:15:56;37.00;;;13.07;;
55497;SDS011;41357;52.806;18.268;2022-12-24T08:18:23;36.47;;;12.52;;
55497;SDS011;41357;52.806;18.268;2022-12-24T08:20:49;30.63;;;12.43;;
55497;SDS011;41357;52.806;18.268;2022-12-24T08:23:15;31.88;;;13.35;;
55497;SDS011;41357;52.806;18.268;2022-12-24T08:25:45;36.30;;;13.75;;
55497;SDS011;41357;52.806;18.268;2022-12-24T08:28:15;29.42;;;12.05;;
55497;SDS011;41357;52.806;18.268;2022-12-24T08:30:42;34.15;;;13.70;;
55497;SDS011;41357;52.806;18.268;2022-12-24T08:33:08;33.92;;;14.20;;
55497;SDS011;41357;52.806;18.268;2022-12-24T08:35:34;35.47;;;11.95;;
55497;SDS011;41357;52.806;18.268;2022-12-24T08:38:00;30.40;;;13.95;;
55497;SDS011;41357;52.806;18.268;2022-12-24T08:40:26;28.77;;;13.60;;
55497;SDS011;41357;52.806;18.268;2022-12-24T08:42:53;30.55;;;11.88;;
55497;SDS011;41357;52.806;18.268;2022-12-24T08:45:19;30.48;;;11.32;;
55497;SDS011;41357;52.806;18.268;2022-12-24T08:47:45;32.95;;;12.60;;
55497;SDS011;41357;52.806;18.268;2022-12-24T08:50:11;29.40;;;12.45;;
55497;SDS011;41357;52.806;18.268;2022-12-24T08:52:38;28.40;;;11.65;;
55497;SDS011;41357;52.806;18.268;2022-12-24T08:55:04;28.23;;;11.35;;
55497;SDS011;41357;52.806;18.268;2022-12-24T08:57:31;30.02;;;11.88;;
55497;SDS011;41357;52.806;18.268;2022-12-24T08:59:59;24.45;;;9.40;;
55497;SDS011;41357;52.806;18.268;2022-12-24T09:02:25;18.80;;;7.82;;
55497;SDS011;41357;52.806;18.268;2022-12-24T09:04:51;20.45;;;9.18;;
55497;SDS011;41357;52.806;18.268;2022-12-24T09:07:17;28.08;;;10.35;;
55497;SDS011;41357;52.806;18.268;2022-12-24T09:09:43;26.73;;;11.35;;
55497;SDS011;41357;52.806;18.268;2022-12-24T09:12:10;33.25;;;12.25;;
55497;SDS011;41357;52.806;18.268;2022-12-24T09:14:36;22.60;;;10.05;;
55497;SDS011;41357;52.806;18.268;2022-12-24T09:17:02;16.88;;;8.35;;
55497;SDS011;41357;52.806;18.268;2022-12-24T09:19:28;24.08;;;10.48;;
55497;SDS011;41357;52.806;18.268;2022-12-24T09:21:54;28.95;;;9.60;;
55497;SDS011;41357;52.806;18.268;2022-12-24T09:24:20;24.77;;;11.02;;
55497;SDS011;41357;52.806;18.268;2022-12-24T09:26:47;21.58;;;9.10;;
55497;SDS011;41357;52.806;18.268;2022-12-24T09:29:13;20.67;;;9.68;;
55497;SDS011;41357;52.806;18.268;2022-12-24T09:31:40;27.92;;;9.05;;
55497;SDS011;41357;52.806;18.268;2022-12-24T09:34:06;23.25;;;10.10;;
55497;SDS011;41357;52.806;18.268;2022-12-24T09:36:32;13.90;;;6.30;;
55497;SDS011;41357;52.806;18.268;2022-12-24T09:38:58;26.80;;;12.35;;
55497;SDS011;41357;52.806;18.268;2022-12-24T09:46:54;19.95;;;7.82;;
55497;SDS011;41357;52.806;18.268;2022-12-24T09:49:25;15.88;;;5.90;;
55497;SDS011;41357;52.806;18.268;2022-12-24T09:54:32;24.38;;;8.98;;
55497;SDS011;41357;52.806;18.268;2022-12-24T09:57:00;29.83;;;9.73;;
55497;SDS011;41357;52.806;18.268;2022-12-24T09:59:32;23.23;;;8.80;;
55497;SDS011;41357;52.806;18.268;2022-12-24T10:01:59;18.27;;;7.18;;
55497;SDS011;41357;52.806;18.268;2022-12-24T10:04:28;23.42;;;8.50;;
55497;SDS011;41357;52.806;18.268;2022-12-24T10:27:43;23.67;;;9.50;;
55497;SDS011;41357;52.806;18.268;2022-12-24T10:30:20;12.05;;;6.13;;
55497;SDS011;41357;52.806;18.268;2022-12-24T10:32:47;8.93;;;4.75;;
55497;SDS011;41357;52.806;18.268;2022-12-24T10:37:43;14.27;;;7.38;;
55497;SDS011;41357;52.806;18.268;2022-12-24T10:40:13;10.77;;;5.93;;
55497;SDS011;41357;52.806;18.268;2022-12-24T10:45:08;19.08;;;8.18;;
55497;SDS011;41357;52.806;18.268;2022-12-24T10:47:38;14.70;;;7.60;;
55497;SDS011;41357;52.806;18.268;2022-12-24T10:52:34;15.02;;;6.18;;
55497;SDS011;41357;52.806;18.268;2022-12-24T10:55:09;12.50;;;5.75;;
55497;SDS011;41357;52.806;18.268;2022-12-24T10:57:36;14.70;;;6.72;;
55497;SDS011;41357;52.806;18.268;2022-12-24T11:00:03;17.08;;;8.85;;
55497;SDS011;41357;52.806;18.268;2022-12-24T11:02:31;16.45;;;5.53;;
55497;SDS011;41357;52.806;18.268;2022-12-24T11:04:59;16.20;;;6.45;;
55497;SDS011;41357;52.806;18.268;2022-12-24T11:07:25;11.90;;;5.85;;
55497;SDS011;41357;52.806;18.268;2022-12-24T11:09:56;11.48;;;5.50;;
55497;SDS011;41357;52.806;18.268;2022-12-24T11:12:24;12.75;;;6.10;;
55497;SDS011;41357;52.806;18.268;2022-12-24T11:14:58;16.40;;;6.38;;
55497;SDS011;41357;52.806;18.268;2022-12-24T11:17:25;16.08;;;6.85;;
55497;SDS011;41357;52.806;18.268;2022-12-24T11:19:51;18.73;;;8.10;;
55497;SDS011;41357;52.806;18.268;2022-12-24T11:22:19;19.95;;;8.43;;
55497;SDS011;41357;52.806;18.268;2022-12-24T11:24:56;32.03;;;9.75;;
55497;SDS011;41357;52.806;18.268;2022-12-24T11:27:38;20.20;;;8.48;;
55497;SDS011;41357;52.806;18.268;2022-12-24T11:32:40;19.95;;;9.82;;
55497;SDS011;41357;52.806;18.268;2022-12-24T11:35:07;14.80;;;7.10;;
55497;SDS011;41357;52.806;18.268;2022-12-24T11:37:33;14.43;;;7.53;;
55497;SDS011;41357;52.806;18.268;2022-12-24T11:40:00;22.45;;;8.40;;
55497;SDS011;41357;52.806;18.268;2022-12-24T11:42:31;31.27;;;13.32;;
55497;SDS011;41357;52.806;18.268;2022-12-24T11:44:59;41.72;;;17.48;;
55497;SDS011;41357;52.806;18.268;2022-12-24T11:47:39;13.15;;;7.57;;
55497;SDS011;41357;52.806;18.268;2022-12-24T12:00:54;22.67;;;8.13;;
55497;SDS011;41357;52.806;18.268;2022-12-24T12:05:49;18.38;;;7.18;;
55497;SDS011;41357;52.806;18.268;2022-12-24T12:08:16;17.10;;;7.32;;
55497;SDS011;41357;52.806;18.268;2022-12-24T12:10:43;9.10;;;5.47;;
55497;SDS011;41357;52.806;18.268;2022-12-24T12:13:31;14.85;;;7.47;;
55497;SDS011;41357;52.806;18.268;2022-12-24T12:18:47;15.50;;;6.78;;
55497;SDS011;41357;52.806;18.268;2022-12-24T12:21:16;15.13;;;7.13;;
55497;SDS011;41357;52.806;18.268;2022-12-24T12:24:03;14.82;;;7.65;;
55497;SDS011;41357;52.806;18.268;2022-12-24T12:26:30;23.00;;;9.75;;
55497;SDS011;41357;52.806;18.268;2022-12-24T12:29:09;18.85;;;7.57;;
55497;SDS011;41357;52.806;18.268;2022-12-24T12:31:41;21.50;;;8.75;;
55497;SDS011;41357;52.806;18.268;2022-12-24T12:34:58;21.23;;;10.13;;
55497;SDS011;41357;52.806;18.268;2022-12-24T12:37:04;25.20;;;9.75;;
55497;SDS011;41357;52.806;18.268;2022-12-24T12:39:31;31.20;;;14.50;;
55497;SDS011;41357;52.806;18.268;2022-12-24T12:55:30;28.38;;;10.73;;
55497;SDS011;41357;52.806;18.268;2022-12-24T12:58:02;23.15;;;9.20;;
55497;SDS011;41357;52.806;18.268;2022-12-24T13:00:30;32.13;;;12.32;;
55497;SDS011;41357;52.806;18.268;2022-12-24T13:08:23;35.08;;;11.57;;
55497;SDS011;41357;52.806;18.268;2022-12-24T13:13:34;29.13;;;11.10;;
55497;SDS011;41357;52.806;18.268;2022-12-24T13:21:00;27.05;;;10.68;;
55497;SDS011;41357;52.806;18.268;2022-12-24T13:23:26;32.90;;;11.30;;
55497;SDS011;41357;52.806;18.268;2022-12-24T13:25:53;38.85;;;12.40;;
55497;SDS011;41357;52.806;18.268;2022-12-24T13:30:52;27.38;;;11.45;;
55497;SDS011;41357;52.806;18.268;2022-12-24T13:36:07;26.92;;;11.48;;
55497;SDS011;41357;52.806;18.268;2022-12-24T13:38:47;38.92;;;13.10;;
55497;SDS011;41357;52.806;18.268;2022-12-24T13:41:55;30.23;;;10.35;;
55497;SDS011;41357;52.806;18.268;2022-12-24T13:49:35;33.05;;;10.80;;
55497;SDS011;41357;52.806;18.268;2022-12-24T13:52:16;21.40;;;8.65;;
55497;SDS011;41357;52.806;18.268;2022-12-24T13:55:16;28.52;;;11.02;;
55497;SDS011;41357;52.806;18.268;2022-12-24T14:05:19;24.13;;;10.18;;
55497;SDS011;41357;52.806;18.268;2022-12-24T14:07:48;23.92;;;11.48;;
55497;SDS011;41357;52.806;18.268;2022-12-24T14:10:19;18.83;;;9.18;;
55497;SDS011;41357;52.806;18.268;2022-12-24T14:17:57;25.33;;;10.68;;
55497;SDS011;41357;52.806;18.268;2022-12-24T14:20:27;30.55;;;11.70;;
55497;SDS011;41357;52.806;18.268;2022-12-24T14:22:53;31.17;;;14.43;;
55497;SDS011;41357;52.806;18.268;2022-12-24T14:25:21;25.08;;;13.45;;
55497;SDS011;41357;52.806;18.268;2022-12-24T14:27:52;21.48;;;10.57;;
55497;SDS011;41357;52.806;18.268;2022-12-24T14:30:20;34.33;;;13.68;;
55497;SDS011;41357;52.806;18.268;2022-12-24T14:32:50;35.13;;;15.00;;
55497;SDS011;41357;52.806;18.268;2022-12-24T14:35:18;58.30;;;22.27;;
55497;SDS011;41357;52.806;18.268;2022-12-24T14:37:49;62.38;;;18.80;;
55497;SDS011;41357;52.806;18.268;2022-12-24T14:40:18;64.72;;;21.77;;
55497;SDS011;41357;52.806;18.268;2022-12-24T14:42:48;34.20;;;14.75;;
55497;SDS011;41357;52.806;18.268;2022-12-24T14:55:45;41.55;;;17.00;;
55497;SDS011;41357;52.806;18.268;2022-12-24T14:58:23;48.50;;;21.85;;
55497;SDS011;41357;52.806;18.268;2022-12-24T15:00:50;52.75;;;20.48;;
55497;SDS011;41357;52.806;18.268;2022-12-24T15:03:17;42.42;;;19.60;;
55497;SDS011;41357;52.806;18.268;2022-12-24T15:05:44;41.13;;;17.70;;
55497;SDS011;41357;52.806;18.268;2022-12-24T15:08:17;35.20;;;16.45;;
55497;SDS011;41357;52.806;18.268;2022-12-24T15:10:52;44.65;;;16.77;;
55497;SDS011;41357;52.806;18.268;2022-12-24T15:13:27;42.92;;;17.25;;
55497;SDS011;41357;52.806;18.268;2022-12-24T15:15:55;38.70;;;17.30;;
55497;SDS011;41357;52.806;18.268;2022-12-24T15:18:23;39.00;;;17.40;;
55497;SDS011;41357;52.806;18.268;2022-12-24T15:20:51;40.38;;;17.63;;
55497;SDS011;41357;52.806;18.268;2022-12-24T15:23:18;36.38;;;16.20;;
55497;SDS011;41357;52.806;18.268;2022-12-24T15:25:44;36.88;;;17.30;;
55497;SDS011;41357;52.806;18.268;2022-12-24T15:28:17;35.15;;;18.17;;
55497;SDS011;41357;52.806;18.268;2022-12-24T15:30:44;38.75;;;16.65;;
55497;SDS011;41357;52.806;18.268;2022-12-24T15:33:10;26.67;;;13.73;;
55497;SDS011;41357;52.806;18.268;2022-12-24T15:38:25;30.05;;;13.15;;
55497;SDS011;41357;52.806;18.268;2022-12-24T15:40:53;30.50;;;15.35;;
55497;SDS011;41357;52.806;18.268;2022-12-24T15:43:20;39.05;;;17.45;;
55497;SDS011;41357;52.806;18.268;2022-12-24T15:45:46;41.28;;;18.05;;
55497;SDS011;41357;52.806;18.268;2022-12-24T15:48:15;33.25;;;16.67;;
55497;SDS011;41357;52.806;18.268;2022-12-24T15:50:45;31.02;;;15.23;;
55497;SDS011;41357;52.806;18.268;2022-12-24T15:53:13;29.33;;;14.43;;
55497;SDS011;41357;52.806;18.268;2022-12-24T15:55:41;34.83;;;16.70;;
55497;SDS011;41357;52.806;18.268;2022-12-24T15:58:28;34.50;;;15.73;;
55497;SDS011;41357;52.806;18.268;2022-12-24T16:04:00;31.15;;;15.10;;
55497;SDS011;41357;52.806;18.268;2022-12-24T16:06:25;35.22;;;15.77;;
55497;SDS011;41357;52.806;18.268;2022-12-24T16:08:52;38.67;;;17.42;;
55497;SDS011;41357;52.806;18.268;2022-12-24T16:11:24;33.58;;;16.70;;
55497;SDS011;41357;52.806;18.268;2022-12-24T16:13:57;36.08;;;17.25;;
55497;SDS011;41357;52.806;18.268;2022-12-24T16:16:31;43.50;;;19.80;;
55497;SDS011;41357;52.806;18.268;2022-12-24T16:18:58;44.80;;;21.13;;
55497;SDS011;41357;52.806;18.268;2022-12-24T16:23:54;54.05;;;23.80;;
55497;SDS011;41357;52.806;18.268;2022-12-24T16:26:21;43.65;;;19.58;;
55497;SDS011;41357;52.806;18.268;2022-12-24T16:28:47;40.90;;;18.67;;
55497;SDS011;41357;52.806;18.268;2022-12-24T16:31:15;54.08;;;23.77;;
55497;SDS011;41357;52.806;18.268;2022-12-24T16:33:42;65.75;;;30.45;;
55497;SDS011;41357;52.806;18.268;2022-12-24T16:36:09;60.42;;;25.58;;
55497;SDS011;41357;52.806;18.268;2022-12-24T16:38:35;45.72;;;21.58;;
55497;SDS011;41357;52.806;18.268;2022-12-24T16:41:21;52.25;;;23.00;;
55497;SDS011;41357;52.806;18.268;2022-12-24T16:43:48;44.00;;;17.15;;
55497;SDS011;41357;52.806;18.268;2022-12-24T16:46:14;46.13;;;19.40;;
55497;SDS011;41357;52.806;18.268;2022-12-24T16:48:40;44.88;;;18.20;;